Terminal Aerodrome Forecast
Issued by NWS

Home | Current Version | Previous Version | Text Only | Print | Product List | Glossary On
Versions: 1 2 3 4 5 6 7 8 9 10 11 12 13 14 15 16
000
FTUS43 KDLH 172055 AAB
TAFBRD
TAF AMD
KBRD 172055Z 1721/1818 34007KT 6SM BR BKN017 OVC045
     FM172200 33007KT P6SM SCT017 BKN045
     FM180200 34007KT P6SM BKN050
     FM181100 33009KT P6SM SCT050
     FM181600 32013G19KT P6SM BKN100=

USA.gov is the U.S. government's official web portal to all federal, state and local government web resources and services.